Time;durP1;ratioP1;P1;durP2;ratioP2;P2;SDS_P1;SDS_P2;PMS_P1;PMS_P2;Temp;Humidity;BMP_temperature;BMP_pressure;BME280_temperature;BME280_humidity;BME280_pressure;Samples;Min_cycle;Max_cycle;Signal;HPM_P1;HPM_P2
2021/11/16 00:01:39;;;;;;;56.65;31.67;;;11.40;99.90;;;;;;5057135;28;20029;-72
2021/11/16 00:04:09;;;;;;;53.17;30.95;;;11.40;99.90;;;;;;5054908;28;20111;-72
2021/11/16 00:06:36;;;;;;;52.53;30.75;;;11.50;99.90;;;;;;5071353;28;20032;-73
2021/11/16 00:09:04;;;;;;;57.40;32.10;;;11.40;99.90;;;;;;5051793;28;20032;-72
2021/11/16 00:11:31;;;;;;;54.15;31.20;;;11.40;99.90;;;;;;5054642;28;20078;-73
2021/11/16 00:13:57;;;;;;;61.80;31.40;;;11.40;99.90;;;;;;5051445;28;20017;-73
2021/11/16 00:16:23;;;;;;;54.42;31.27;;;11.40;99.90;;;;;;5070183;28;20040;-72
2021/11/16 00:18:56;;;;;;;57.03;31.52;;;11.40;99.90;;;;;;5062395;28;20472;-72
2021/11/16 00:21:25;;;;;;;59.00;30.90;;;11.40;99.90;;;;;;5060587;28;20040;-72
2021/11/16 00:23:55;;;;;;;63.60;29.48;;;11.40;99.90;;;;;;5054640;28;20013;-72
2021/11/16 00:26:21;;;;;;;49.28;29.02;;;11.40;99.90;;;;;;5062179;28;20102;-72
2021/11/16 00:28:47;;;;;;;57.10;31.20;;;11.40;99.90;;;;;;5055343;28;20021;-73
2021/11/16 00:31:14;;;;;;;52.92;29.80;;;11.40;99.90;;;;;;5070639;28;20101;-72
2021/11/16 00:33:40;;;;;;;59.22;32.38;;;11.40;99.90;;;;;;5069809;28;20028;-72
2021/11/16 00:36:06;;;;;;;57.78;32.00;;;11.40;99.90;;;;;;5068015;28;20051;-73
2021/11/16 00:38:32;;;;;;;57.25;31.40;;;11.40;99.90;;;;;;5058406;28;20058;-72
2021/11/16 00:40:57;;;;;;;57.08;30.73;;;11.40;99.90;;;;;;5066494;28;20030;-71
2021/11/16 00:43:23;;;;;;;55.78;31.25;;;11.40;99.90;;;;;;5058818;28;20033;-73
2021/11/16 00:45:49;;;;;;;61.63;32.63;;;11.40;99.90;;;;;;5062799;28;20032;-72
2021/11/16 00:48:17;;;;;;;57.13;30.67;;;11.40;99.90;;;;;;5060943;28;20075;-72
2021/11/16 00:50:48;;;;;;;51.92;29.38;;;11.40;99.90;;;;;;5057955;28;20021;-72
2021/11/16 00:53:14;;;;;;;48.47;28.33;;;11.40;99.90;;;;;;5054984;28;20096;-72
2021/11/16 00:55:40;;;;;;;53.13;30.13;;;11.40;99.90;;;;;;5065200;28;20055;-72
2021/11/16 00:58:06;;;;;;;58.55;31.20;;;11.40;99.90;;;;;;5059606;28;20067;-72
2021/11/16 01:00:32;;;;;;;56.53;31.15;;;11.40;99.90;;;;;;5060555;28;20039;-73
2021/11/16 01:02:58;;;;;;;56.63;32.05;;;11.40;99.90;;;;;;5056045;28;20385;-72
2021/11/16 01:05:24;;;;;;;59.25;31.88;;;11.40;99.90;;;;;;5060136;28;20040;-73
2021/11/16 01:07:50;;;;;;;51.50;29.55;;;11.30;99.90;;;;;;5054646;28;20017;-71
2021/11/16 01:10:19;;;;;;;53.42;31.27;;;11.40;99.90;;;;;;5071523;28;20027;-72
2021/11/16 01:12:45;;;;;;;62.25;30.60;;;11.30;99.90;;;;;;5074896;28;20380;-73
2021/11/16 01:15:14;;;;;;;55.90;32.35;;;11.30;99.90;;;;;;5074799;28;20044;-73
2021/11/16 01:17:41;;;;;;;47.35;29.15;;;11.30;99.90;;;;;;5058870;28;20040;-73
2021/11/16 01:20:11;;;;;;;53.63;29.50;;;11.30;99.90;;;;;;5054093;28;20029;-71
2021/11/16 01:22:37;;;;;;;52.95;28.65;;;11.30;99.90;;;;;;5074239;28;20040;-72
2021/11/16 01:25:04;;;;;;;57.20;30.75;;;11.40;99.90;;;;;;5056739;28;20044;-73
2021/11/16 01:27:34;;;;;;;57.65;29.50;;;11.30;99.90;;;;;;5054338;28;20025;-72
2021/11/16 01:30:01;;;;;;;62.20;31.25;;;11.30;99.90;;;;;;5055999;28;20538;-71
2021/11/16 01:32:36;;;;;;;50.60;29.05;;;11.30;99.90;;;;;;5068823;28;20029;-71
2021/11/16 01:35:03;;;;;;;48.92;29.50;;;11.30;99.90;;;;;;5063889;28;20538;-72
2021/11/16 01:37:29;;;;;;;51.97;31.08;;;11.30;99.90;;;;;;5065113;28;20127;-72
2021/11/16 01:39:56;;;;;;;49.85;29.25;;;11.30;99.90;;;;;;5054307;28;20508;-72
2021/11/16 01:42:22;;;;;;;55.70;30.58;;;11.30;99.90;;;;;;5054408;28;20029;-73
2021/11/16 01:44:49;;;;;;;52.92;29.38;;;11.30;99.90;;;;;;5053751;28;20057;-72
2021/11/16 01:47:15;;;;;;;50.10;31.42;;;11.20;99.90;;;;;;5054147;28;20024;-73
2021/11/16 01:49:42;;;;;;;54.80;30.85;;;11.30;99.90;;;;;;5055293;28;20020;-72
2021/11/16 01:52:08;;;;;;;56.40;31.05;;;11.30;99.90;;;;;;5062829;28;20025;-72
2021/11/16 01:54:36;;;;;;;56.90;30.48;;;11.20;99.90;;;;;;5056395;28;20466;-72
2021/11/16 01:57:03;;;;;;;59.45;31.35;;;11.20;99.90;;;;;;5072916;28;20055;-72
2021/11/16 01:59:29;;;;;;;52.60;29.58;;;11.20;99.90;;;;;;5065559;28;20506;-72
2021/11/16 02:01:56;;;;;;;56.60;31.48;;;11.20;99.90;;;;;;5062466;28;20033;-72
2021/11/16 02:04:22;;;;;;;61.08;30.20;;;11.10;99.90;;;;;;5057716;28;20028;-72
2021/11/16 02:06:49;;;;;;;52.60;28.50;;;11.10;99.90;;;;;;5059899;28;20094;-72
2021/11/16 02:09:17;;;;;;;54.10;29.58;;;11.20;99.90;;;;;;5064786;28;20090;-73
2021/11/16 02:11:44;;;;;;;47.75;27.15;;;11.20;99.90;;;;;;5058509;28;20389;-72
2021/11/16 02:14:13;;;;;;;45.95;27.83;;;11.20;99.90;;;;;;5053676;28;20124;-72
2021/11/16 02:16:40;;;;;;;51.00;28.55;;;11.20;99.90;;;;;;5058715;28;20104;-72
2021/11/16 02:19:08;;;;;;;52.83;29.73;;;11.20;99.90;;;;;;5053045;28;20025;-73
2021/11/16 02:21:34;;;;;;;56.10;29.35;;;11.20;99.90;;;;;;5063668;28;20490;-72
2021/11/16 02:24:00;;;;;;;46.17;27.17;;;11.20;99.90;;;;;;5062199;28;20025;-72
2021/11/16 02:26:26;;;;;;;55.92;26.75;;;11.20;99.90;;;;;;5057062;28;20031;-73
2021/11/16 02:28:53;;;;;;;53.97;30.52;;;11.20;99.90;;;;;;5053160;28;20029;-73
2021/11/16 02:31:20;;;;;;;47.55;27.70;;;11.20;99.90;;;;;;5059009;28;20052;-72
2021/11/16 02:33:47;;;;;;;48.13;28.50;;;11.20;99.90;;;;;;5052874;28;20397;-72
2021/11/16 02:36:13;;;;;;;47.67;28.02;;;11.20;99.90;;;;;;5057435;28;20072;-72
2021/11/16 02:38:40;;;;;;;53.55;31.55;;;11.20;99.90;;;;;;5052931;28;20032;-72
2021/11/16 02:41:07;;;;;;;51.53;28.08;;;11.20;99.90;;;;;;5064104;28;20035;-73
2021/11/16 02:43:36;;;;;;;50.70;28.92;;;11.20;99.90;;;;;;5057716;28;20495;-72
2021/11/16 02:46:03;;;;;;;50.70;29.50;;;11.20;99.90;;;;;;5054826;28;20032;-73
2021/11/16 02:48:30;;;;;;;49.90;28.25;;;11.20;99.90;;;;;;5053008;28;20108;-72
2021/11/16 02:50:59;;;;;;;57.17;30.08;;;11.30;99.90;;;;;;5052806;28;20028;-72
2021/11/16 02:53:25;;;;;;;55.22;30.30;;;11.30;99.90;;;;;;5066535;28;20040;-73
2021/11/16 02:55:52;;;;;;;56.95;30.27;;;11.30;99.90;;;;;;5070874;28;20016;-72
2021/11/16 02:58:20;;;;;;;51.80;29.10;;;11.30;99.90;;;;;;5058732;28;20515;-71
2021/11/16 03:00:52;;;;;;;55.05;28.80;;;11.30;99.90;;;;;;5056839;28;20111;-73
2021/11/16 03:03:19;;;;;;;52.72;30.35;;;11.30;99.90;;;;;;5059735;28;20384;-73
2021/11/16 03:05:45;;;;;;;51.35;29.10;;;11.40;99.90;;;;;;5059747;28;20071;-72
2021/11/16 03:08:24;;;;;;;57.83;30.98;;;11.40;99.90;;;;;;5054593;28;20468;-73
2021/11/16 03:10:52;;;;;;;62.20;31.58;;;11.40;99.90;;;;;;5055598;28;20546;-72
2021/11/16 03:13:18;;;;;;;54.17;30.65;;;11.40;99.90;;;;;;5052445;28;20032;-73
2021/11/16 03:15:45;;;;;;;54.85;31.13;;;11.40;99.90;;;;;;5060729;28;20372;-73
2021/11/16 03:18:12;;;;;;;58.88;31.98;;;11.40;99.90;;;;;;5055153;28;20392;-72
2021/11/16 03:20:39;;;;;;;59.95;31.48;;;11.40;99.90;;;;;;5057368;28;20040;-73
2021/11/16 03:25:43;;;;;;;56.28;34.25;;;11.40;99.90;;;;;;5056521;28;20143;-72
2021/11/16 03:28:10;;;;;;;59.05;32.78;;;11.30;99.90;;;;;;5051271;28;20048;-72
2021/11/16 03:30:38;;;;;;;55.67;30.88;;;11.30;99.90;;;;;;5053345;28;20032;-73
2021/11/16 03:33:04;;;;;;;56.35;31.67;;;11.40;99.90;;;;;;5059006;28;20032;-72
2021/11/16 03:35:31;;;;;;;56.50;31.23;;;11.40;99.90;;;;;;5051329;28;20492;-73
2021/11/16 03:37:59;;;;;;;56.55;31.08;;;11.40;99.90;;;;;;5052156;28;20033;-72
2021/11/16 03:40:26;;;;;;;56.00;31.65;;;11.40;99.90;;;;;;5053924;28;20028;-72
2021/11/16 03:42:52;;;;;;;54.95;32.63;;;11.40;99.90;;;;;;5056985;28;20120;-73
2021/11/16 03:45:24;;;;;;;52.65;31.40;;;11.40;99.90;;;;;;5054697;28;20108;-73
2021/11/16 03:47:50;;;;;;;59.22;32.30;;;11.30;99.90;;;;;;5056847;28;20033;-72
2021/11/16 03:50:20;;;;;;;58.83;32.08;;;11.30;99.90;;;;;;5052388;28;20496;-73
2021/11/16 03:52:49;;;;;;;61.83;34.38;;;11.30;99.90;;;;;;5063098;28;20072;-72
2021/11/16 03:55:15;;;;;;;53.67;31.10;;;11.30;99.90;;;;;;5051182;28;20029;-72
2021/11/16 03:57:41;;;;;;;59.10;33.55;;;11.20;99.90;;;;;;5054118;28;20037;-73
2021/11/16 04:00:14;;;;;;;55.28;31.33;;;11.30;99.90;;;;;;5056395;28;20025;-72
2021/11/16 04:02:40;;;;;;;53.88;31.80;;;11.30;99.90;;;;;;5056912;28;20083;-71
2021/11/16 04:05:06;;;;;;;63.78;33.42;;;11.30;99.90;;;;;;5056515;28;20029;-72
2021/11/16 04:07:33;;;;;;;57.72;34.53;;;11.30;99.90;;;;;;5051794;28;20389;-72
2021/11/16 04:09:59;;;;;;;61.50;34.10;;;11.30;99.90;;;;;;5055552;28;20035;-72
2021/11/16 04:12:25;;;;;;;58.75;33.58;;;11.30;99.90;;;;;;5051493;28;20115;-73
2021/11/16 04:14:51;;;;;;;60.03;34.38;;;11.30;99.90;;;;;;5054333;28;20063;-73
2021/11/16 04:17:17;;;;;;;57.08;32.88;;;11.30;99.90;;;;;;5054056;28;20381;-72
2021/11/16 04:19:43;;;;;;;58.30;33.92;;;11.30;99.90;;;;;;5064913;28;20032;-72
2021/11/16 04:22:10;;;;;;;52.92;32.35;;;11.30;99.90;;;;;;5054044;28;20029;-73
2021/11/16 04:24:36;;;;;;;57.63;32.78;;;11.30;99.90;;;;;;5062056;28;20025;-72
2021/11/16 04:27:02;;;;;;;55.28;32.17;;;11.30;99.90;;;;;;5051706;28;20473;-72
2021/11/16 04:29:28;;;;;;;56.33;33.00;;;11.30;99.90;;;;;;5061145;28;20032;-72
2021/11/16 04:31:54;;;;;;;50.25;32.50;;;11.30;99.90;;;;;;5069964;28;20037;-72
2021/11/16 04:34:19;;;;;;;56.85;32.35;;;11.30;99.90;;;;;;5052604;28;20060;-73
2021/11/16 04:36:46;;;;;;;53.65;31.63;;;11.30;99.90;;;;;;5062863;28;20049;-72
2021/11/16 04:39:12;;;;;;;59.50;33.40;;;11.30;99.90;;;;;;5051326;28;20406;-73
2021/11/16 04:41:38;;;;;;;55.83;32.63;;;11.30;99.90;;;;;;5066254;28;20120;-73
2021/11/16 04:44:06;;;;;;;52.17;31.63;;;11.30;99.90;;;;;;5051313;28;20100;-72
2021/11/16 04:46:32;;;;;;;55.67;31.63;;;11.30;99.90;;;;;;5052807;28;20041;-72
2021/11/16 05:04:52;;;;;;;54.15;32.67;;;11.40;99.90;;;;;;5050928;28;20044;-72
2021/11/16 05:07:21;;;;;;;52.95;31.65;;;11.30;99.90;;;;;;5069825;28;20111;-73
2021/11/16 05:09:49;;;;;;;52.60;31.73;;;11.30;99.90;;;;;;5070469;28;20017;-71
2021/11/16 05:12:16;;;;;;;49.63;30.65;;;11.30;99.90;;;;;;5055049;28;20544;-72
2021/11/16 05:14:42;;;;;;;52.95;32.70;;;11.40;99.90;;;;;;5058012;28;20047;-72
2021/11/16 05:17:07;;;;;;;50.75;32.22;;;11.40;99.90;;;;;;5060474;28;20040;-72
2021/11/16 05:19:33;;;;;;;57.38;31.42;;;11.40;99.90;;;;;;5057920;28;20021;-71
2021/11/16 05:21:59;;;;;;;46.20;30.20;;;11.40;99.90;;;;;;5058800;28;20443;-72
2021/11/16 05:24:25;;;;;;;49.97;30.45;;;11.40;99.90;;;;;;5054876;28;20412;-72
2021/11/16 05:26:52;;;;;;;55.70;33.17;;;11.40;99.90;;;;;;5073490;28;20059;-72
2021/11/16 05:29:19;;;;;;;51.80;31.92;;;11.40;99.90;;;;;;5068741;28;20027;-71
2021/11/16 05:31:45;;;;;;;51.53;32.00;;;11.40;99.90;;;;;;5056881;28;20021;-73
2021/11/16 05:34:10;;;;;;;50.13;29.90;;;11.40;99.90;;;;;;5066332;28;20036;-71
2021/11/16 05:36:36;;;;;;;47.35;30.17;;;11.40;99.90;;;;;;5061129;28;20040;-72
2021/11/16 05:39:03;;;;;;;52.20;30.50;;;11.40;99.90;;;;;;5054422;28;20341;-72
2021/11/16 05:41:29;;;;;;;53.45;31.02;;;11.50;99.90;;;;;;5070139;28;20028;-72
2021/11/16 05:43:55;;;;;;;54.63;31.15;;;11.50;99.90;;;;;;5056760;28;20155;-72
2021/11/16 05:46:21;;;;;;;59.38;32.80;;;11.60;99.90;;;;;;5064036;28;20028;-72
2021/11/16 05:48:49;;;;;;;53.30;32.10;;;11.60;99.90;;;;;;5054431;28;20021;-72
2021/11/16 05:51:15;;;;;;;52.03;30.55;;;11.60;99.90;;;;;;5060424;28;20344;-72
2021/11/16 05:53:44;;;;;;;53.30;31.13;;;11.60;99.90;;;;;;5053607;28;20163;-72
2021/11/16 05:56:10;;;;;;;60.88;34.15;;;11.60;99.90;;;;;;5058776;28;20033;-72
2021/11/16 05:58:40;;;;;;;61.92;32.15;;;11.60;99.90;;;;;;5054089;28;20017;-72
2021/11/16 06:01:06;;;;;;;45.10;29.15;;;11.60;99.90;;;;;;5056353;28;20025;-72
2021/11/16 06:03:31;;;;;;;52.90;31.50;;;11.60;99.90;;;;;;5055005;28;20116;-71
2021/11/16 06:05:57;;;;;;;48.50;30.92;;;11.60;99.90;;;;;;5062800;28;20025;-71
2021/11/16 06:08:27;;;;;;;53.28;31.85;;;11.60;99.90;;;;;;5052975;28;20093;-71
2021/11/16 06:10:55;;;;;;;52.13;31.10;;;11.60;99.90;;;;;;5060513;28;20350;-70
2021/11/16 06:13:21;;;;;;;54.95;30.77;;;11.60;99.90;;;;;;5053013;28;20021;-73
2021/11/16 06:15:47;;;;;;;51.50;31.50;;;11.60;99.90;;;;;;5055548;28;20116;-72
2021/11/16 06:18:13;;;;;;;54.30;32.53;;;11.60;99.90;;;;;;5053055;28;20108;-72
2021/11/16 06:20:43;;;;;;;50.80;30.67;;;11.60;99.90;;;;;;5061972;28;20020;-72
2021/11/16 06:23:11;;;;;;;51.83;30.40;;;11.60;99.90;;;;;;5063423;28;20028;-72
2021/11/16 06:25:40;;;;;;;61.03;30.63;;;11.60;99.90;;;;;;5053337;28;20021;-73
2021/11/16 06:28:06;;;;;;;50.40;30.73;;;11.60;99.90;;;;;;5052732;28;20017;-72
2021/11/16 06:30:32;;;;;;;50.05;29.60;;;11.70;99.90;;;;;;5064635;28;20024;-72
2021/11/16 06:32:58;;;;;;;52.78;31.20;;;11.70;99.90;;;;;;5067049;28;20017;-72
2021/11/16 06:35:25;;;;;;;52.47;31.73;;;11.70;99.90;;;;;;5062253;28;20032;-73
2021/11/16 06:37:52;;;;;;;49.45;30.58;;;11.70;99.90;;;;;;5055892;28;20049;-72
2021/11/16 06:40:18;;;;;;;56.60;29.00;;;11.70;99.90;;;;;;5069117;28;20016;-72
2021/11/16 06:42:44;;;;;;;46.28;29.05;;;11.70;99.90;;;;;;5052746;28;20084;-72
2021/11/16 06:45:10;;;;;;;51.20;30.85;;;11.70;99.90;;;;;;5062099;28;20485;-73
2021/11/16 06:47:36;;;;;;;48.08;30.65;;;11.70;99.90;;;;;;5053719;28;20064;-73
2021/11/16 06:50:03;;;;;;;63.58;30.27;;;11.80;99.90;;;;;;5053046;28;20068;-72
2021/11/16 06:52:32;;;;;;;52.33;31.25;;;11.70;99.90;;;;;;5052171;28;20121;-73
2021/11/16 06:54:58;;;;;;;53.60;29.90;;;11.80;99.90;;;;;;5062747;28;20157;-72
2021/11/16 06:57:27;;;;;;;58.63;30.00;;;11.80;99.90;;;;;;5053889;28;20090;-73
2021/11/16 06:59:53;;;;;;;46.47;29.45;;;11.80;99.90;;;;;;5058731;28;20099;-72
2021/11/16 07:02:23;;;;;;;56.25;32.08;;;11.80;99.90;;;;;;5052655;28;20166;-72
2021/11/16 07:04:49;;;;;;;57.60;32.35;;;11.80;99.90;;;;;;5058323;28;20017;-71
2021/11/16 07:07:15;;;;;;;50.47;31.70;;;11.80;99.90;;;;;;5060819;28;20036;-71
2021/11/16 07:09:41;;;;;;;50.88;31.20;;;11.90;99.90;;;;;;5056579;28;20154;-72
2021/11/16 07:12:24;;;;;;;50.05;30.50;;;11.90;99.90;;;;;;5064981;28;20036;-72
2021/11/16 07:14:50;;;;;;;51.55;29.25;;;11.90;99.90;;;;;;5059748;28;20055;-71
2021/11/16 07:17:18;;;;;;;57.65;32.33;;;12.00;99.90;;;;;;5059277;28;20045;-71
2021/11/16 07:19:54;;;;;;;48.15;29.63;;;11.90;99.90;;;;;;5053907;28;20066;-71
2021/11/16 07:22:30;;;;;;;53.78;31.42;;;11.90;99.90;;;;;;5057621;28;20381;-71
2021/11/16 07:25:00;;;;;;;48.58;28.75;;;12.00;99.90;;;;;;5068364;28;20036;-72
2021/11/16 07:27:43;;;;;;;58.08;31.88;;;12.00;99.90;;;;;;5067852;28;20037;-70
2021/11/16 07:30:18;;;;;;;49.90;30.52;;;12.00;99.90;;;;;;5061847;28;20115;-72
2021/11/16 07:32:59;;;;;;;49.63;30.10;;;12.10;99.90;;;;;;5065363;28;20031;-72
2021/11/16 07:35:31;;;;;;;54.53;31.45;;;12.10;99.90;;;;;;5060188;28;20465;-71
2021/11/16 07:38:07;;;;;;;46.80;29.65;;;12.20;99.90;;;;;;5068108;28;20036;-71
2021/11/16 07:40:34;;;;;;;50.25;30.00;;;12.20;99.90;;;;;;5071224;28;20111;-71
2021/11/16 07:43:03;;;;;;;48.15;30.25;;;12.20;99.90;;;;;;5070333;28;20028;-71
2021/11/16 07:45:30;;;;;;;53.20;30.70;;;12.30;99.90;;;;;;5064899;28;20571;-71
2021/11/16 07:48:08;;;;;;;49.65;30.05;;;12.30;99.90;;;;;;5064808;28;20585;-71
2021/11/16 07:50:43;;;;;;;59.45;30.30;;;12.20;99.90;;;;;;5069179;28;20056;-71
2021/11/16 07:53:11;;;;;;;51.78;31.25;;;12.30;99.90;;;;;;5067922;28;20017;-72
2021/11/16 07:55:38;;;;;;;54.65;30.90;;;12.30;99.90;;;;;;5070569;28;20040;-71
2021/11/16 07:58:05;;;;;;;57.08;30.80;;;12.20;99.90;;;;;;5067334;28;20036;-70
2021/11/16 08:00:34;;;;;;;53.78;31.98;;;12.20;99.90;;;;;;5069058;28;20040;-70
2021/11/16 08:03:13;;;;;;;54.10;32.17;;;12.20;99.90;;;;;;5070479;28;20025;-71
2021/11/16 08:05:58;;;;;;;52.60;31.23;;;12.20;99.90;;;;;;5069838;28;20376;-71
2021/11/16 08:08:35;;;;;;;56.67;32.40;;;12.20;99.90;;;;;;5070139;28;20077;-72
2021/11/16 08:11:33;;;;;;;53.83;30.77;;;12.20;99.90;;;;;;5069390;28;20027;-71
2021/11/16 08:14:06;;;;;;;49.42;31.55;;;12.10;99.90;;;;;;5069498;28;20418;-71
2021/11/16 08:16:53;;;;;;;57.63;33.20;;;12.10;99.90;;;;;;5069307;28;20076;-71
2021/11/16 08:19:23;;;;;;;64.70;33.92;;;12.10;99.90;;;;;;5069091;28;20135;-72
2021/11/16 08:21:55;;;;;;;54.67;29.98;;;12.20;99.90;;;;;;5069496;28;20074;-71
2021/11/16 08:24:22;;;;;;;;;;;12.20;99.90;;;;;;5071134;28;20051;-72
2021/11/16 08:26:50;;;;;;;59.08;32.30;;;12.20;99.90;;;;;;5068277;28;20272;-70
2021/11/16 08:29:30;;;;;;;53.20;31.85;;;12.10;99.90;;;;;;5069548;28;20020;-71
2021/11/16 08:32:11;;;;;;;67.97;34.05;;;12.10;99.90;;;;;;5068358;28;20020;-71
2021/11/16 08:34:55;;;;;;;58.35;32.50;;;12.10;99.90;;;;;;5071656;28;20100;-72
2021/11/16 08:37:25;;;;;;;57.90;32.03;;;12.10;99.90;;;;;;5070269;28;20048;-71
2021/11/16 08:39:56;;;;;;;54.03;30.17;;;12.10;99.90;;;;;;5070620;28;20428;-72
2021/11/16 08:42:29;;;;;;;49.65;29.92;;;12.20;99.90;;;;;;5070925;28;20064;-72
2021/11/16 08:45:12;;;;;;;50.25;29.42;;;12.10;99.90;;;;;;5072788;28;20028;-72
2021/11/16 08:47:54;;;;;;;50.20;29.48;;;12.10;99.90;;;;;;5071672;28;20025;-72
2021/11/16 08:50:32;;;;;;;52.28;31.08;;;12.10;99.90;;;;;;5072092;28;20520;-71
2021/11/16 08:53:05;;;;;;;55.70;32.08;;;12.10;99.90;;;;;;5072882;28;20388;-72
2021/11/16 08:55:33;;;;;;;49.53;31.17;;;12.10;99.90;;;;;;5074121;28;20032;-72
2021/11/16 08:58:02;;;;;;;52.95;31.13;;;12.10;99.90;;;;;;5072415;28;20429;-72
2021/11/16 09:00:37;;;;;;;52.50;30.42;;;12.00;99.90;;;;;;5074700;28;20071;-70
2021/11/16 09:03:13;;;;;;;56.33;31.83;;;12.00;99.90;;;;;;5074242;28;20507;-71
2021/11/16 09:05:45;;;;;;;51.53;30.60;;;11.90;99.90;;;;;;5074259;28;20392;-70
2021/11/16 09:08:22;;;;;;;53.13;30.02;;;12.00;99.90;;;;;;5074470;28;20024;-71
2021/11/16 09:10:50;;;;;;;58.30;31.40;;;12.00;99.90;;;;;;5074656;28;20056;-72
2021/11/16 09:13:17;;;;;;;54.20;30.05;;;12.00;99.90;;;;;;5073697;28;20048;-72
2021/11/16 09:15:57;;;;;;;57.03;31.88;;;12.00;99.90;;;;;;5072618;28;20020;-72
2021/11/16 09:18:28;;;;;;;54.75;30.50;;;12.10;99.90;;;;;;5072686;28;20036;-72
2021/11/16 09:20:57;;;;;;;56.20;32.17;;;12.00;99.90;;;;;;5074543;28;20024;-71
2021/11/16 09:23:26;;;;;;;62.78;30.70;;;12.10;99.90;;;;;;5072160;28;20270;-72
2021/11/16 09:25:53;;;;;;;50.55;30.00;;;12.10;99.90;;;;;;5072814;28;20070;-72
2021/11/16 09:28:39;;;;;;;53.35;32.58;;;12.20;99.90;;;;;;5073104;28;20070;-73
2021/11/16 09:31:25;;;;;;;63.65;31.77;;;12.20;99.90;;;;;;5073749;28;20016;-72
2021/11/16 09:33:54;;;;;;;56.25;31.85;;;12.20;99.90;;;;;;5073501;28;20113;-72
2021/11/16 09:36:23;;;;;;;55.42;31.02;;;12.20;99.90;;;;;;5073711;28;20423;-72
2021/11/16 09:38:53;;;;;;;61.42;31.52;;;12.20;99.90;;;;;;5074273;28;20029;-72
2021/11/16 09:41:31;;;;;;;55.20;31.85;;;12.20;99.90;;;;;;5073906;28;20028;-71
2021/11/16 09:44:08;;;;;;;53.92;31.83;;;12.30;99.90;;;;;;5073788;28;20165;-72
2021/11/16 09:46:51;;;;;;;63.83;32.97;;;12.30;99.90;;;;;;5073011;28;20024;-73
2021/11/16 09:49:44;;;;;;;53.50;30.35;;;12.30;99.90;;;;;;5073723;28;20060;-72
2021/11/16 09:52:33;;;;;;;61.85;33.20;;;12.30;99.90;;;;;;5072335;28;20036;-73
2021/11/16 09:55:14;;;;;;;59.95;32.95;;;12.40;99.90;;;;;;5071276;28;20070;-72
2021/11/16 09:57:45;;;;;;;61.87;33.17;;;12.30;99.90;;;;;;5073745;28;20488;-73
2021/11/16 10:00:19;;;;;;;62.17;32.55;;;12.30;99.90;;;;;;5073959;28;20083;-72
2021/11/16 10:02:52;;;;;;;54.50;32.63;;;12.20;99.90;;;;;;5071892;28;20060;-72
2021/11/16 10:05:22;;;;;;;64.13;32.90;;;12.10;99.90;;;;;;5073403;28;20020;-72
2021/11/16 10:07:51;;;;;;;59.40;34.20;;;12.10;99.90;;;;;;5072550;28;20048;-72
2021/11/16 10:10:19;;;;;;;51.70;32.03;;;12.10;99.90;;;;;;5072421;28;20493;-74
2021/11/16 10:12:51;;;;;;;57.45;31.48;;;12.00;99.90;;;;;;5071766;28;20511;-72
2021/11/16 10:15:19;;;;;;;53.17;31.80;;;12.00;99.90;;;;;;5072802;28;20376;-72
2021/11/16 10:17:47;;;;;;;57.97;33.03;;;12.00;99.90;;;;;;5069320;28;20078;-72
2021/11/16 10:20:19;;;;;;;52.67;31.70;;;12.00;99.90;;;;;;5070734;28;20081;-72
2021/11/16 10:22:49;;;;;;;;;;;12.00;99.90;;;;;;5069266;28;20497;-73
2021/11/16 10:25:23;;;;;;;54.65;30.92;;;12.00;99.90;;;;;;5072913;28;20292;-71
2021/11/16 10:27:55;;;;;;;56.97;32.83;;;11.90;99.90;;;;;;5071972;28;20020;-72
2021/11/16 10:30:27;;;;;;;55.75;33.13;;;11.90;99.90;;;;;;5072876;28;20491;-72
2021/11/16 10:33:16;;;;;;;66.82;33.47;;;11.90;99.90;;;;;;5073452;28;20369;-72
2021/11/16 10:36:06;;;;;;;56.30;31.45;;;11.90;99.90;;;;;;5072699;28;20377;-72
2021/11/16 10:38:56;;;;;;;55.65;32.20;;;11.90;99.90;;;;;;5073334;28;20062;-72
2021/11/16 10:41:29;;;;;;;58.97;32.10;;;12.00;99.90;;;;;;5072205;28;20039;-73
2021/11/16 10:44:00;;;;;;;57.72;33.65;;;12.00;99.90;;;;;;5072766;28;20020;-72
2021/11/16 10:46:29;;;;;;;50.92;30.67;;;12.00;99.90;;;;;;5073245;28;20032;-72
2021/11/16 10:48:58;;;;;;;51.65;30.67;;;12.00;99.90;;;;;;5073139;28;20487;-74
2021/11/16 10:51:31;;;;;;;49.58;30.35;;;12.00;99.90;;;;;;5073041;28;20128;-70
2021/11/16 10:53:57;;;;;;;49.10;29.45;;;12.10;99.90;;;;;;5069285;28;20380;-71
2021/11/16 10:56:26;;;;;;;52.92;30.67;;;12.00;99.90;;;;;;5071526;28;20040;-71
2021/11/16 10:58:54;;;;;;;54.53;30.85;;;12.10;99.90;;;;;;5071942;28;20157;-70
2021/11/16 11:01:24;;;;;;;51.97;31.02;;;12.10;99.90;;;;;;5072367;28;20546;-71
2021/11/16 11:03:54;;;;;;;59.22;31.65;;;12.10;99.90;;;;;;5071682;28;20139;-71
2021/11/16 11:06:26;;;;;;;48.85;29.48;;;12.00;99.90;;;;;;5072531;28;20052;-71
2021/11/16 11:09:18;;;;;;;50.30;27.90;;;12.10;99.90;;;;;;5072614;28;20127;-72
2021/11/16 11:11:46;;;;;;;49.40;28.98;;;12.10;99.90;;;;;;5070261;28;20049;-72
2021/11/16 11:14:15;;;;;;;49.13;29.55;;;12.10;99.90;;;;;;5072491;28;20062;-72
2021/11/16 11:16:59;;;;;;;48.05;28.40;;;12.20;99.90;;;;;;5055590;28;20033;-72
2021/11/16 11:19:31;;;;;;;45.05;27.02;;;12.20;99.90;;;;;;5072020;28;20384;-72
2021/11/16 11:21:58;;;;;;;49.55;30.42;;;12.20;99.90;;;;;;5072157;28;20100;-71
2021/11/16 11:24:29;;;;;;;51.97;30.67;;;12.20;99.90;;;;;;5071964;28;20024;-72
2021/11/16 11:27:07;;;;;;;50.33;29.65;;;12.30;99.90;;;;;;5072168;28;20020;-71
2021/11/16 11:29:44;;;;;;;46.00;27.05;;;12.40;99.90;;;;;;5064801;28;20044;-72
2021/11/16 11:32:25;;;;;;;49.53;28.13;;;12.40;99.90;;;;;;5071531;28;20113;-72
2021/11/16 11:35:00;;;;;;;45.28;27.05;;;12.50;99.90;;;;;;5070462;28;20024;-72
2021/11/16 11:37:43;;;;;;;44.28;26.63;;;12.50;99.90;;;;;;5070934;28;20060;-72
2021/11/16 11:40:18;;;;;;;47.50;28.63;;;12.50;99.90;;;;;;5069683;28;20488;-72
2021/11/16 11:42:57;;;;;;;45.08;26.77;;;12.50;99.90;;;;;;5069587;28;20016;-72
2021/11/16 11:45:35;;;;;;;52.72;30.65;;;12.60;99.90;;;;;;5068586;28;20036;-72
2021/11/16 11:48:01;;;;;;;47.97;27.80;;;12.60;99.90;;;;;;5058814;28;20020;-73
2021/11/16 11:50:37;;;;;;;60.22;34.55;;;12.60;99.90;;;;;;5066769;28;20372;-72
2021/11/16 11:53:13;;;;;;;64.72;37.45;;;12.70;99.90;;;;;;5070568;28;20111;-71
2021/11/16 11:55:46;;;;;;;40.78;26.02;;;12.80;99.90;;;;;;5070632;28;20040;-73
2021/11/16 11:58:16;;;;;;;43.65;25.20;;;12.80;99.90;;;;;;5070070;28;20054;-72
2021/11/16 12:00:44;;;;;;;39.40;25.05;;;12.80;99.90;;;;;;5070692;28;20044;-72
2021/11/16 12:03:11;;;;;;;40.15;24.83;;;12.80;99.90;;;;;;5071451;28;20016;-73
2021/11/16 12:05:39;;;;;;;36.90;24.10;;;12.80;99.90;;;;;;5070624;28;20035;-73
2021/11/16 12:08:05;;;;;;;40.70;24.60;;;12.80;99.90;;;;;;5069246;28;20036;-73
2021/11/16 12:10:35;;;;;;;41.47;25.48;;;12.80;99.90;;;;;;5070994;28;20465;-73
2021/11/16 12:13:01;;;;;;;57.85;34.17;;;12.80;99.90;;;;;;5070895;28;20411;-73
2021/11/16 12:15:47;;;;;;;46.42;28.10;;;12.80;99.90;;;;;;5069970;28;20053;-73
2021/11/16 12:18:14;;;;;;;62.22;39.88;;;12.80;99.90;;;;;;5069383;28;20028;-73
2021/11/16 12:20:53;;;;;;;46.47;28.58;;;12.80;99.90;;;;;;5077412;28;20092;-73
2021/11/16 12:23:41;;;;;;;44.10;24.83;;;12.80;99.90;;;;;;5077081;28;20105;-73
2021/11/16 12:26:08;;;;;;;44.83;27.17;;;12.80;99.90;;;;;;5076061;28;20025;-73
2021/11/16 12:28:34;;;;;;;41.78;25.40;;;12.80;99.90;;;;;;5076291;28;20491;-74
2021/11/16 12:31:02;;;;;;;51.00;30.10;;;12.70;99.90;;;;;;5076758;28;20020;-72
2021/11/16 12:33:35;;;;;;;46.92;28.50;;;12.70;99.90;;;;;;5076838;28;20533;-73
2021/11/16 12:36:01;;;;;;;44.60;26.00;;;12.70;99.90;;;;;;5073970;28;20135;-73
2021/11/16 12:38:34;;;;;;;44.70;26.92;;;12.70;99.90;;;;;;5077283;28;20017;-72
2021/11/16 12:41:40;;;;;;;43.33;26.85;;;12.70;99.90;;;;;;5077735;28;20024;-73
2021/11/16 12:44:11;;;;;;;41.15;24.60;;;12.70;99.90;;;;;;5076053;28;20019;-72
2021/11/16 12:46:39;;;;;;;47.33;25.17;;;12.70;99.90;;;;;;5075508;28;20031;-73
2021/11/16 12:49:09;;;;;;;38.58;25.05;;;12.60;99.90;;;;;;5076022;28;20017;-71
2021/11/16 12:51:54;;;;;;;43.63;26.40;;;12.60;99.90;;;;;;5076737;28;20020;-71
2021/11/16 12:54:28;;;;;;;65.30;36.35;;;12.60;99.90;;;;;;5076451;28;20044;-73
2021/11/16 12:56:57;;;;;;;51.30;29.00;;;12.60;99.90;;;;;;5073305;28;20028;-73
2021/11/16 12:59:44;;;;;;;40.10;23.90;;;12.60;99.90;;;;;;5077179;28;20021;-72
2021/11/16 13:02:25;;;;;;;42.85;23.55;;;12.50;99.90;;;;;;5062083;28;20119;-73